Aurora, CO (80011)

3:27 AM MDT on September 21, 2014 (GMT -0600)
Montbello | Change Station
CLOSE
Current Station
Personal Weather Station
Location: Denver, CO
Elevation: 5364 ft
Nearby Weather Stations

Elev 5364 ft 39.78 °N, 104.82 °W | Updated 45 seconds ago

Overcast
Overcast
61.2 °F
Feels Like 61.2 °F
N
1.8
Wind Variable Wind from NE
Gusts 1.8 mph

Today
High -- | Low -- °F
--% Chance of Precip.
Yesterday
High -- | Low -- °F
Precip. -- in
6:45 AM 6:57 PM
Waning Crescent, 7% visible
Pressure 30.14 in
Visibility 10.0 miles
Clouds Overcast 6000 ft
Dew Point 45 °F
Humidity 56%
Rainfall 0.00 in
Snow Depth 0 in , 0 in , 6 in
UV 0 out of 12
Pollen 6.70 out of 12
PM2.5 Moderate
Flu Activity Not available.
METAR KBKF 210858Z 09006KT 10SM OVC060 16/10 A3035 RMK AO2A SLP206 T01630097 50001

More Conditions Fewer Conditions

Pressure 30.14 in
Visibility 10.0 miles
Clouds Overcast 6000 ft
Dew Point 45 °F
Humidity 56%
Rainfall 0.00 in
Snow Depth 0 in , 0 in , 6 in
UV 0 out of 12
Pollen 6.70 out of 12
PM2.5 Moderate
Flu Activity Not available.
METAR KBKF 210858Z 09006KT 10SM OVC060 16/10 A3035 RMK AO2A SLP206 T01630097 50001

More Conditions Fewer Conditions

10-Day Weather Forecast

Almanac

Astronomy

Sep. 21, 2014 Rise Set
Actual Time 6:45 AM MDT 6:57 PM MDT
Civil Twilight 6:18 AM MDT 7:24 PM MDT
Nautical Twilight 5:47 AM MDT 7:56 PM MDT
Astronomical Twilight 5:15 AM MDT 8:28 PM MDT
Moon 4:22 AM MDT 5:35 PM MDT
Length of Visible Light 13h 05m
Length of Day
12h 11m
Tomorrow will be 2m 35s shorter.
Waning Crescent, 7% of the Moon is Illuminated
Today
Waning Crescent
Sep 24
New
Oct 1
First Quarter
Oct 8
Full
Oct 15
Last Quarter

Today's Extremes

State Highs State Lows

Community

WunderPhotos

Upload Photos

1,755,106 photos uploaded!

Nearby

Air Quality

  Air Quality AQ Index Pollutant
Yesterday Moderate
OZONE
Yesterday Good
PM10
Current Moderate
PM2.5
Sunday Good
OZONE
Sunday Good
PM2.5
Monday Moderate
PM2.5
Monday Good
OZONE

Snow Depth

Station Depth Elevation
Phantom Valley 0 in 9030 ft
Medano Pass 0 in 9620 ft
Rawah 6 in 9020 ft
Elk River 0 in 8700 ft
Independence Pass 187 in 10600 ft

Earthquake Activity

City Distance Mag. Time & Date
No recent earthquake activity has been reported nearby.
Minimum magnitude displayed is 2.5.

Coastal Water Temperatures

Place Temperature
No Stations Reporting

Nearby Weather Stations